createdAt,value
2023-11-14T00:00:05.984Z,23.43
2023-11-14T00:03:10.516Z,17.20
2023-11-14T00:06:14.708Z,19.83
2023-11-14T00:09:19.018Z,30.80
2023-11-14T00:12:25.515Z,21.60
2023-11-14T00:15:29.818Z,21.30
2023-11-14T00:18:34.039Z,18.03
2023-11-14T00:21:38.129Z,19.20
2023-11-14T00:24:42.671Z,17.47
2023-11-14T00:27:46.780Z,24.67
2023-11-14T00:30:51.203Z,22.30
2023-11-14T00:33:55.536Z,20.63
2023-11-14T00:37:04.958Z,17.80
2023-11-14T00:40:10.346Z,20.43
2023-11-14T00:43:15.688Z,15.27
2023-11-14T00:46:19.964Z,16.83
2023-11-14T00:49:24.282Z,16.90
2023-11-14T00:52:28.383Z,12.33
2023-11-14T00:55:32.518Z,25.83
2023-11-14T00:58:36.619Z,20.03
2023-11-14T01:01:40.742Z,20.23
2023-11-14T01:04:44.832Z,32.40
2023-11-14T01:07:48.917Z,14.47
2023-11-14T01:10:53.073Z,22.57
2023-11-14T01:13:58.446Z,24.73
2023-11-14T01:17:02.794Z,20.70
2023-11-14T01:20:07.744Z,24.90
2023-11-14T01:23:12.296Z,18.47
2023-11-14T01:26:16.633Z,17.30
2023-11-14T01:29:20.673Z,18.10
2023-11-14T01:32:24.885Z,17.30
2023-11-14T01:35:29.154Z,30.47
2023-11-14T01:38:33.223Z,21.60
2023-11-14T01:41:39.921Z,18.97
2023-11-14T01:44:44.134Z,24.80
2023-11-14T01:47:49.925Z,22.50
2023-11-14T01:50:54.298Z,25.33
2023-11-14T01:53:58.921Z,30.77
2023-11-14T01:57:03.130Z,21.60
2023-11-14T02:00:08.025Z,23.20
2023-11-14T02:03:12.037Z,21.50
2023-11-14T02:06:16.046Z,21.60
2023-11-14T02:09:22.147Z,20.57
2023-11-14T02:12:26.828Z,20.20
2023-11-14T02:15:31.081Z,16.37
2023-11-14T02:18:35.091Z,19.13
2023-11-14T02:21:39.829Z,28.67
2023-11-14T02:24:56.383Z,17.90
2023-11-14T02:28:00.419Z,15.10
2023-11-14T02:31:04.677Z,18.97
2023-11-14T02:34:08.884Z,19.50
2023-11-14T02:37:13.172Z,28.50
2023-11-14T02:40:17.778Z,16.97
2023-11-14T02:43:22.083Z,24.83
2023-11-14T02:46:26.037Z,23.47
2023-11-14T02:49:52.071Z,23.50
2023-11-14T02:53:00.433Z,26.87
2023-11-14T02:56:05.792Z,19.10
2023-11-14T02:59:09.851Z,21.33
2023-11-14T03:02:13.758Z,18.93
2023-11-14T03:05:18.628Z,17.17
2023-11-14T03:08:24.000Z,16.37
2023-11-14T03:11:28.131Z,19.10
2023-11-14T03:14:32.329Z,21.03
2023-11-14T03:17:36.518Z,16.73
2023-11-14T03:20:40.740Z,22.90
2023-11-14T03:23:44.942Z,23.13
2023-11-14T03:26:48.829Z,28.67
2023-11-14T03:29:52.938Z,21.10
2023-11-14T03:32:57.357Z,19.90
2023-11-14T03:36:01.637Z,23.80
2023-11-14T03:39:05.713Z,23.33
2023-11-14T03:42:10.358Z,28.90
2023-11-14T03:45:14.485Z,21.77
2023-11-14T03:48:18.763Z,20.20
2023-11-14T03:51:22.805Z,26.90
2023-11-14T03:54:27.045Z,21.57
2023-11-14T03:57:30.931Z,27.07
2023-11-14T04:00:34.957Z,22.23
2023-11-14T04:03:39.467Z,18.57
2023-11-14T04:06:44.616Z,25.30
2023-11-14T04:09:48.790Z,29.90
2023-11-14T04:12:52.964Z,24.00
2023-11-14T04:15:57.129Z,22.30
2023-11-14T04:19:02.017Z,21.53
2023-11-14T04:22:06.559Z,21.17
2023-11-14T04:25:11.751Z,30.03
2023-11-14T04:28:15.569Z,24.23
2023-11-14T04:31:19.942Z,17.70
2023-11-14T04:34:24.125Z,24.47
2023-11-14T04:37:28.458Z,21.70
2023-11-14T04:40:32.377Z,14.43
2023-11-14T04:43:36.523Z,24.37
2023-11-14T04:46:47.126Z,22.17
2023-11-14T04:49:51.159Z,19.57
2023-11-14T04:52:55.103Z,21.20
2023-11-14T04:55:59.533Z,30.30
2023-11-14T04:59:04.189Z,13.93
2023-11-14T05:02:09.292Z,21.53
2023-11-14T05:05:13.402Z,20.43
2023-11-14T05:08:17.415Z,18.93
2023-11-14T05:11:21.685Z,18.50
2023-11-14T05:14:25.681Z,20.30
2023-11-14T05:17:29.827Z,11.60
2023-11-14T05:20:33.676Z,23.00
2023-11-14T05:23:37.758Z,20.20
2023-11-14T05:26:41.922Z,13.97
2023-11-14T05:29:46.529Z,22.20
2023-11-14T05:32:53.700Z,16.20
2023-11-14T05:35:57.647Z,18.23
2023-11-14T05:39:01.563Z,20.87
2023-11-14T05:42:06.759Z,26.83
2023-11-14T05:45:11.510Z,16.60
2023-11-14T05:48:17.481Z,17.50
2023-11-14T05:51:22.029Z,20.73
2023-11-14T05:54:26.120Z,18.53
2023-11-14T05:57:30.136Z,17.87
2023-11-14T06:00:34.308Z,16.37
2023-11-14T06:03:38.403Z,17.37
2023-11-14T06:06:42.652Z,19.07
2023-11-14T06:09:47.191Z,17.20
2023-11-14T06:12:52.547Z,17.73
2023-11-14T06:15:56.758Z,17.97
2023-11-14T06:19:01.127Z,19.43
2023-11-14T06:22:05.980Z,33.33
2023-11-14T06:25:10.129Z,19.73
2023-11-14T06:28:14.322Z,28.60
2023-11-14T06:31:18.315Z,14.17
2023-11-14T06:34:22.582Z,19.00
2023-11-14T06:37:26.486Z,26.17
2023-11-14T06:40:30.957Z,17.87
2023-11-14T06:43:36.250Z,18.97
2023-11-14T06:46:40.524Z,15.17
2023-11-14T06:49:45.110Z,19.60
2023-11-14T06:52:49.585Z,22.57
2023-11-14T06:55:53.323Z,15.90
2023-11-14T06:58:57.674Z,15.10
2023-11-14T07:02:02.620Z,15.53
2023-11-14T07:05:07.247Z,24.17
2023-11-14T07:08:11.964Z,21.10
2023-11-14T07:11:16.809Z,27.20
2023-11-14T07:14:25.291Z,24.43
2023-11-14T07:17:29.581Z,23.83
2023-11-14T07:20:33.882Z,20.93
2023-11-14T07:23:38.002Z,18.73
2023-11-14T07:26:45.038Z,23.10
2023-11-14T07:29:49.407Z,22.33
2023-11-14T07:32:53.250Z,22.93
2023-11-14T07:35:57.515Z,26.43
2023-11-14T07:39:01.557Z,27.70
2023-11-14T07:42:06.091Z,16.37
2023-11-14T07:45:12.898Z,23.37
2023-11-14T07:48:17.801Z,19.07
2023-11-14T07:51:21.926Z,17.10
2023-11-14T07:54:25.989Z,13.60
2023-11-14T07:57:31.141Z,38.50
2023-11-14T08:00:35.609Z,24.07
2023-11-14T08:03:40.566Z,16.37
2023-11-14T08:06:45.011Z,20.40
2023-11-14T08:09:53.032Z,21.47
2023-11-14T08:12:57.367Z,20.43
2023-11-14T08:16:01.788Z,20.77
2023-11-14T08:19:06.101Z,16.60
2023-11-14T08:22:10.499Z,17.83
2023-11-14T08:25:14.486Z,26.97
2023-11-14T08:28:21.451Z,25.53
2023-11-14T08:31:26.055Z,16.73
2023-11-14T08:34:30.513Z,14.00
2023-11-14T08:37:34.662Z,15.03
2023-11-14T08:40:39.044Z,18.67
2023-11-14T08:43:43.521Z,24.13
2023-11-14T08:46:48.812Z,18.97
2023-11-14T08:49:55.747Z,14.60
2023-11-14T08:52:59.928Z,20.10
2023-11-14T08:56:04.786Z,14.97
2023-11-14T08:59:09.039Z,22.03
2023-11-14T09:02:14.200Z,21.03
2023-11-14T09:05:18.690Z,19.83
2023-11-14T09:08:24.184Z,15.70
2023-11-14T09:11:30.565Z,17.77
2023-11-14T09:14:35.552Z,10.43
2023-11-14T09:17:45.523Z,17.30
2023-11-14T09:20:52.198Z,19.30
2023-11-14T09:23:57.954Z,15.37
2023-11-14T09:27:02.207Z,10.37
2023-11-14T09:30:06.869Z,16.60
2023-11-14T09:33:11.171Z,15.80
2023-11-14T09:36:15.469Z,15.03
2023-11-14T09:39:26.686Z,22.60
2023-11-14T09:42:31.627Z,18.47
2023-11-14T09:45:36.657Z,17.70
2023-11-14T09:48:41.291Z,18.93
2023-11-14T09:51:50.729Z,18.87
2023-11-14T09:54:54.955Z,12.93
2023-11-14T09:57:59.774Z,14.20
2023-11-14T10:01:04.102Z,19.57
2023-11-14T10:04:11.558Z,21.50
2023-11-14T10:07:21.211Z,18.93
2023-11-14T10:10:25.346Z,15.40
2023-11-14T10:13:29.668Z,14.83
2023-11-14T10:16:33.808Z,11.87
2023-11-14T10:19:38.531Z,19.23
2023-11-14T10:22:50.862Z,10.30
2023-11-14T10:26:04.722Z,12.53
2023-11-14T10:29:09.169Z,18.70
2023-11-14T10:32:14.207Z,14.07
2023-11-14T10:35:19.089Z,12.70
2023-11-14T10:38:26.302Z,12.60
2023-11-14T10:41:31.561Z,9.47
2023-11-14T10:44:35.800Z,8.37
2023-11-14T10:47:43.737Z,18.80
2023-11-14T10:50:48.856Z,21.43
2023-11-14T10:53:55.932Z,19.37
2023-11-14T10:57:05.618Z,13.83
2023-11-14T11:00:15.486Z,9.83
2023-11-14T11:03:20.322Z,11.73
2023-11-14T11:06:29.149Z,8.93
2023-11-14T11:09:33.551Z,23.97
2023-11-14T11:12:38.709Z,15.47
2023-11-14T11:15:47.636Z,12.23
2023-11-14T11:18:52.002Z,20.50
2023-11-14T11:22:07.803Z,19.27
2023-11-14T11:25:28.546Z,12.20
2023-11-14T11:28:34.853Z,12.47
2023-11-14T11:31:39.917Z,15.07
2023-11-14T11:34:43.989Z,12.77
2023-11-14T11:37:58.365Z,9.73
2023-11-14T11:41:12.617Z,16.07
2023-11-14T11:44:19.376Z,9.17
2023-11-14T11:47:36.741Z,20.97
2023-11-14T11:50:42.836Z,16.37
2023-11-14T11:53:46.774Z,12.37
2023-11-14T11:56:51.018Z,9.73
2023-11-14T11:59:55.616Z,10.47
2023-11-14T12:03:01.215Z,12.33
2023-11-14T12:06:10.963Z,13.63
2023-11-14T12:09:16.296Z,8.53
2023-11-14T12:12:20.389Z,10.43
2023-11-14T12:15:25.472Z,8.60
2023-11-14T12:18:29.490Z,6.33
2023-11-14T12:21:34.507Z,10.50
2023-11-14T12:24:41.609Z,9.90
2023-11-14T12:27:59.549Z,8.80
2023-11-14T12:31:05.380Z,5.47
2023-11-14T12:34:09.700Z,9.07
2023-11-14T12:37:20.266Z,10.53
2023-11-14T12:40:24.301Z,12.17
2023-11-14T12:43:28.737Z,7.10
2023-11-14T12:46:34.618Z,4.13
2023-11-14T12:49:51.617Z,13.70
2023-11-14T12:52:57.583Z,11.87
2023-11-14T12:56:01.882Z,15.87
2023-11-14T12:59:06.947Z,8.50
2023-11-14T13:02:11.301Z,6.67
2023-11-14T13:05:15.625Z,9.33
2023-11-14T13:08:19.976Z,11.27
2023-11-14T13:11:24.505Z,8.30
2023-11-14T13:14:28.304Z,8.27
2023-11-14T13:17:33.135Z,9.00
2023-11-14T13:20:37.436Z,6.23
2023-11-14T13:23:44.634Z,12.90
2023-11-14T13:26:48.974Z,7.07
2023-11-14T13:29:54.306Z,8.00
2023-11-14T13:32:59.747Z,11.20
2023-11-14T13:36:05.675Z,8.43
2023-11-14T13:39:09.609Z,3.03
2023-11-14T13:42:13.648Z,4.23
2023-11-14T13:45:17.515Z,7.73
2023-11-14T13:48:21.864Z,6.80
2023-11-14T13:51:26.284Z,4.70
2023-11-14T13:54:30.314Z,5.10
2023-11-14T13:57:34.353Z,5.13
2023-11-14T14:00:40.631Z,7.60
2023-11-14T14:03:44.826Z,7.60
2023-11-14T14:06:49.568Z,7.90
2023-11-14T14:09:53.946Z,5.37
2023-11-14T14:12:59.405Z,4.47
2023-11-14T14:16:06.564Z,4.83
2023-11-14T14:19:12.284Z,7.37
2023-11-14T14:22:18.542Z,3.33
2023-11-14T14:25:25.319Z,10.17
2023-11-14T14:28:35.930Z,4.80
2023-11-14T14:31:41.852Z,8.37
2023-11-14T14:34:47.814Z,3.57
2023-11-14T14:37:52.000Z,7.80
2023-11-14T14:40:56.131Z,7.10
2023-11-14T14:44:06.644Z,8.50
2023-11-14T14:47:11.046Z,4.60
2023-11-14T14:50:15.278Z,4.57
2023-11-14T14:53:21.253Z,6.13
2023-11-14T14:56:25.784Z,8.23
2023-11-14T14:59:30.454Z,4.43
2023-11-14T15:02:34.398Z,4.53
2023-11-14T15:05:38.870Z,5.57
2023-11-14T15:08:43.214Z,4.53
2023-11-14T15:11:47.259Z,6.00
2023-11-14T15:14:51.015Z,5.87
2023-11-14T15:17:56.656Z,3.93
2023-11-14T15:21:01.079Z,3.77
2023-11-14T15:24:06.342Z,6.50
2023-11-14T15:27:10.555Z,6.10
2023-11-14T15:30:15.276Z,9.07
2023-11-14T15:33:19.349Z,3.33
2023-11-14T15:36:31.021Z,6.47
2023-11-14T15:39:35.219Z,7.33
2023-11-14T15:42:42.809Z,6.90
2023-11-14T15:45:46.815Z,6.90
2023-11-14T15:48:52.509Z,10.70
2023-11-14T15:51:57.872Z,4.63
2023-11-14T15:55:06.039Z,7.30
2023-11-14T15:58:13.671Z,13.60
2023-11-14T16:01:19.165Z,7.63
2023-11-14T16:04:23.530Z,11.10
2023-11-14T16:07:27.382Z,7.30
2023-11-14T16:10:31.663Z,7.30
2023-11-14T16:13:35.921Z,7.07
2023-11-14T16:16:39.922Z,7.63
2023-11-14T16:19:43.762Z,7.03
2023-11-14T16:22:47.792Z,8.60
2023-11-14T16:25:54.820Z,13.67
2023-11-14T16:29:02.618Z,6.03
2023-11-14T16:32:08.539Z,5.53
2023-11-14T16:35:12.689Z,4.50
2023-11-14T16:38:16.725Z,4.87
2023-11-14T16:41:20.615Z,9.53
2023-11-14T16:44:27.689Z,9.63
2023-11-14T16:47:35.113Z,6.63
2023-11-14T16:50:38.947Z,10.53
2023-11-14T16:53:43.046Z,4.97
2023-11-14T16:56:47.933Z,8.10
2023-11-14T16:59:52.216Z,4.43
2023-11-14T17:02:56.404Z,12.27
2023-11-14T17:06:00.318Z,9.33
2023-11-14T17:09:04.808Z,4.10
2023-11-14T17:12:09.336Z,6.03
2023-11-14T17:15:16.302Z,12.10
2023-11-14T17:18:20.481Z,9.33
2023-11-14T17:21:24.613Z,5.30
2023-11-14T17:24:29.312Z,3.33
2023-11-14T17:27:33.161Z,8.23
2023-11-14T17:30:41.873Z,9.30
2023-11-14T17:33:46.222Z,7.17
2023-11-14T17:36:50.440Z,12.80
2023-11-14T17:39:54.324Z,7.57
2023-11-14T17:42:58.575Z,6.90
2023-11-14T17:46:05.744Z,5.57
2023-11-14T17:49:13.748Z,4.97
2023-11-14T17:52:18.348Z,7.47
2023-11-14T17:55:23.701Z,5.70
2023-11-14T17:58:29.556Z,7.80
2023-11-14T18:01:34.352Z,4.17
2023-11-14T18:04:38.954Z,4.03
2023-11-14T18:07:43.049Z,7.73
2023-11-14T18:10:47.484Z,2.80
2023-11-14T18:13:55.071Z,4.10
2023-11-14T18:16:59.448Z,8.00
2023-11-14T18:20:07.618Z,9.47
2023-11-14T18:23:12.000Z,20.27
2023-11-14T18:26:15.792Z,11.40
2023-11-14T18:29:19.606Z,5.43
2023-11-14T18:32:24.335Z,7.60
2023-11-14T18:35:28.479Z,5.73
2023-11-14T18:38:32.737Z,8.10
2023-11-14T18:41:37.527Z,4.20
2023-11-14T18:44:50.749Z,3.93
2023-11-14T18:48:02.390Z,5.10
2023-11-14T18:51:06.902Z,5.30
2023-11-14T18:54:10.933Z,4.03
2023-11-14T18:57:14.945Z,7.00
2023-11-14T19:00:20.815Z,7.77
2023-11-14T19:03:25.615Z,4.73
2023-11-14T19:06:30.946Z,6.37
2023-11-14T19:09:35.650Z,9.60
2023-11-14T19:12:41.028Z,9.23
2023-11-14T19:15:45.542Z,18.40
2023-11-14T19:18:50.141Z,16.87
2023-11-14T19:21:54.221Z,19.03
2023-11-14T19:25:02.408Z,22.13
2023-11-14T19:28:09.450Z,17.87
2023-11-14T19:31:13.571Z,13.23
2023-11-14T19:34:19.343Z,7.10
2023-11-14T19:37:23.448Z,8.90
2023-11-14T19:40:28.243Z,6.67
2023-11-14T19:43:33.219Z,5.60
2023-11-14T19:46:37.483Z,6.83
2023-11-14T19:49:45.972Z,4.30
2023-11-14T19:52:50.594Z,6.53
2023-11-14T19:55:54.739Z,7.13
2023-11-14T19:58:59.489Z,6.50
2023-11-14T20:02:04.204Z,6.40
2023-11-14T20:05:09.688Z,5.00
2023-11-14T20:08:14.914Z,10.03
2023-11-14T20:11:19.102Z,9.50
2023-11-14T20:14:23.786Z,9.87
2023-11-14T20:17:27.670Z,8.50
2023-11-14T20:20:31.842Z,10.53
2023-11-14T20:23:36.298Z,14.30
2023-11-14T20:26:43.418Z,9.57
2023-11-14T20:29:49.680Z,12.33
2023-11-14T20:32:54.031Z,14.53
2023-11-14T20:35:58.340Z,14.03
2023-11-14T20:39:02.361Z,15.00
2023-11-14T20:42:07.054Z,11.27
2023-11-14T20:45:13.027Z,11.63
2023-11-14T20:48:18.629Z,10.93
2023-11-14T20:51:27.583Z,11.57
2023-11-14T20:54:32.330Z,6.63
2023-11-14T20:57:36.436Z,7.60
2023-11-14T21:00:40.551Z,6.20
2023-11-14T21:03:44.527Z,12.07
2023-11-14T21:06:48.679Z,8.33
2023-11-14T21:09:52.721Z,6.33
2023-11-14T21:12:56.645Z,6.93
2023-11-14T21:16:00.531Z,5.20
2023-11-14T21:19:04.939Z,6.67
2023-11-14T21:22:09.320Z,10.43
2023-11-14T21:25:13.766Z,5.13
2023-11-14T21:28:18.110Z,7.07
2023-11-14T21:31:22.003Z,6.30
2023-11-14T21:34:26.051Z,8.57
2023-11-14T21:37:30.435Z,9.20
2023-11-14T21:40:34.735Z,8.20
2023-11-14T21:43:40.252Z,8.83
2023-11-14T21:46:44.259Z,11.27
2023-11-14T21:49:48.330Z,12.33
2023-11-14T21:52:52.391Z,9.70
2023-11-14T21:55:56.347Z,9.83
2023-11-14T21:59:00.404Z,13.73
2023-11-14T22:02:05.026Z,11.37
2023-11-14T22:05:10.187Z,9.13
2023-11-14T22:08:14.475Z,8.80
2023-11-14T22:11:18.779Z,9.17
2023-11-14T22:14:22.848Z,8.27
2023-11-14T22:17:27.148Z,9.97
2023-11-14T22:20:31.484Z,8.83
2023-11-14T22:23:35.811Z,11.27
2023-11-14T22:26:40.256Z,14.20
2023-11-14T22:29:44.238Z,8.00
2023-11-14T22:32:48.729Z,10.63
2023-11-14T22:35:53.113Z,7.37
2023-11-14T22:38:57.460Z,8.30
2023-11-14T22:42:01.800Z,8.93
2023-11-14T22:45:09.006Z,13.03
2023-11-14T22:48:13.332Z,10.10
2023-11-14T22:51:17.296Z,11.30
2023-11-14T22:54:21.582Z,10.10
2023-11-14T22:57:26.029Z,11.07
2023-11-14T23:00:45.754Z,12.17
2023-11-14T23:03:50.085Z,16.57
2023-11-14T23:06:55.677Z,10.90
2023-11-14T23:10:00.203Z,11.77
2023-11-14T23:13:09.762Z,12.97
2023-11-14T23:16:13.664Z,15.30
2023-11-14T23:19:18.025Z,13.73
2023-11-14T23:22:22.301Z,17.70
2023-11-14T23:25:29.369Z,16.30
2023-11-14T23:28:33.487Z,16.70
2023-11-14T23:31:37.642Z,12.43
2023-11-14T23:34:41.797Z,13.93
2023-11-14T23:37:45.976Z,14.10
2023-11-14T23:40:51.521Z,14.70
2023-11-14T23:43:56.262Z,14.83
2023-11-14T23:47:00.730Z,11.53
2023-11-14T23:50:06.653Z,12.40
2023-11-14T23:53:11.839Z,17.03
2023-11-14T23:56:15.938Z,15.13
2023-11-14T23:59:20.084Z,20.50
